Huvudsida
METAR-TAF:

METAR-TAF

Flygplatser :

Aviano flygbas

Aviano, Italien

latitud: 46-02N, longitud: 012-36E, höjd: 128 m

Aktuellt väderrapport

Denna rapport gjordes för 23 timmar och 46 minuter sedan, klockan 20:55 UTC
Vind 3 kt från ost/nordost
Temperatur 6°C
Fuktighet 93%
Tryck 1022 hPa
Sikt 10 km eller mer
Få moln på en höjd av 4000 ft
Brutna moln på en höjd av 5500 ft

METAR: LIPA 252055Z 07003KT 9999 FEW040 BKN055 06/05 Q1022 RMK BKN VIS MIN 9999 WIND THR05 /////KT WIND THR23 /////KT A3020 BLU

Tid: 21:41 (20:41 UTC)

Väderprognos

Denna rapport gjordes för 41 minuter sedan, klockan 20:00 UTC
Prognos gäller från 25 kl. 21 UTC till 26 kl. 06 UTC
Vind 5 kt varierande vindriktning
Sikt: 8000 m
Brutna moln på en höjd av 4000 ft
Temporärt
från 25 kl. 21 UTC till 26 kl. 06 UTC
Sikt: 3000 m
Brutna moln på en höjd av 2000 ft
regn, fuktdis

TAF: LIPA 252000Z 2521/2606 VRB05KT 8000 BKN040 TEMPO 2521/2606 3000 RA BR BKN020

Aktuella väderrapporter och prognoser från 4000 flygplatser (METAR- och TAF-rapporter).

De tillgängliga stationerna syns som gula och röda prickar på kartan.

För musen över prickarna för att se namnen på stationerna.

Klicka sedan för att få väderrapporter och prognoser.

För att ändra kartan: Klicka på de gröna knapparna med ett svart kors på för att zooma in; den gröna knappen med ett streck på för att zooma ut; eller på de gröna pilarna för angränsande kartor.


METAR-TAF: